Time;durP1;ratioP1;P1;durP2;ratioP2;P2;SDS_P1;SDS_P2;PMS_P1;PMS_P2;Temp;Humidity;BMP_temperature;BMP_pressure;BME280_temperature;BME280_humidity;BME280_pressure;Samples;Min_cycle;Max_cycle;Signal;HPM_P1;HPM_P2
2022/12/13 00:01:23;;;;;;;50.88;24.98;;;;;;;;;;5054544;28;20051;-65
2022/12/13 00:03:53;;;;;;;54.72;24.65;;;;;;;;;;5054474;28;20052;-66
2022/12/13 00:06:20;;;;;;;52.58;23.88;;;;;;;;;;5054880;28;20451;-65
2022/12/13 00:08:46;;;;;;;57.95;25.70;;;;;;;;;;5054464;28;20052;-66
2022/12/13 00:11:13;;;;;;;51.05;24.52;;;;;;;;;;5054759;28;20128;-66
2022/12/13 00:13:40;;;;;;;50.53;23.70;;;;;;;;;;5054443;28;20155;-66
2022/12/13 00:16:09;;;;;;;53.80;25.80;;;;;;;;;;5054328;28;20143;-66
2022/12/13 00:18:35;;;;;;;49.08;24.83;;;;;;;;;;5054347;28;20285;-66
2022/12/13 00:21:05;;;;;;;53.47;26.13;;;;;;;;;;5054590;28;20131;-66
2022/12/13 00:23:32;;;;;;;55.20;25.48;;;;;;;;;;5054508;28;20136;-66
2022/12/13 00:26:02;;;;;;;50.10;23.98;;;;;;;;;;5054152;28;20080;-65
2022/12/13 00:28:29;;;;;;;54.30;25.48;;;;;;;;;;5054146;28;20076;-66
2022/12/13 00:30:59;;;;;;;50.15;24.60;;;;;;;;;;5052981;28;20072;-66
2022/12/13 00:33:46;;;;;;;55.47;25.45;;;;;;;;;;5054015;28;20045;-66
2022/12/13 00:36:12;;;;;;;53.60;25.20;;;;;;;;;;5053963;28;20159;-66
2022/12/13 00:38:39;;;;;;;52.47;25.00;;;;;;;;;;5054330;28;20461;-65
2022/12/13 00:41:18;;;;;;;50.83;25.02;;;;;;;;;;5054290;28;20040;-66
2022/12/13 00:43:45;;;;;;;50.30;25.10;;;;;;;;;;5052685;28;20103;-66
2022/12/13 00:46:16;;;;;;;49.13;25.10;;;;;;;;;;5045142;28;20136;-66
2022/12/13 00:48:43;;;;;;;55.47;24.70;;;;;;;;;;5039307;28;20049;-66
2022/12/13 00:51:11;;;;;;;54.08;26.08;;;;;;;;;;5053981;28;20163;-65
2022/12/13 00:53:37;;;;;;;48.67;23.40;;;;;;;;;;5053784;28;20049;-66
2022/12/13 00:56:08;;;;;;;45.80;24.33;;;;;;;;;;5053783;28;20087;-66
2022/12/13 00:58:35;;;;;;;47.42;24.48;;;;;;;;;;5052531;28;20076;-66
2022/12/13 01:01:06;;;;;;;45.05;24.85;;;;;;;;;;5053572;28;20131;-66
2022/12/13 01:03:32;;;;;;;47.92;24.45;;;;;;;;;;5052469;28;20075;-66
2022/12/13 01:05:59;;;;;;;46.97;23.85;;;;;;;;;;5053589;28;20044;-66
2022/12/13 01:08:42;;;;;;;45.92;22.17;;;;;;;;;;5053759;28;20041;-66
2022/12/13 01:11:09;;;;;;;45.72;23.60;;;;;;;;;;5053634;28;20076;-66
2022/12/13 01:13:36;;;;;;;49.40;25.23;;;;;;;;;;5053875;28;20049;-66
2022/12/13 01:16:04;;;;;;;41.88;22.13;;;;;;;;;;5053607;28;20037;-66
2022/12/13 01:18:30;;;;;;;44.72;23.05;;;;;;;;;;5053742;28;20445;-66
2022/12/13 01:20:58;;;;;;;44.85;23.30;;;;;;;;;;5053184;28;20663;-66
2022/12/13 01:23:25;;;;;;;43.27;23.10;;;;;;;;;;5053235;28;20049;-66
2022/12/13 01:25:51;;;;;;;40.75;22.27;;;;;;;;;;5053124;28;20453;-66
2022/12/13 01:28:17;;;;;;;43.15;22.90;;;;;;;;;;5053312;28;20089;-66
2022/12/13 01:30:51;;;;;;;39.45;22.45;;;;;;;;;;5053314;28;20131;-66
2022/12/13 01:33:18;;;;;;;41.75;21.38;;;;;;;;;;5053090;28;20390;-66
2022/12/13 01:35:44;;;;;;;40.58;22.17;;;;;;;;;;5052983;28;20144;-66
2022/12/13 01:38:11;;;;;;;42.70;22.75;;;;;;;;;;5053114;28;20040;-66
2022/12/13 01:40:42;;;;;;;42.20;22.63;;;;;;;;;;5053106;28;20053;-66
2022/12/13 01:43:11;;;;;;;43.65;23.33;;;;;;;;;;5052976;28;20083;-66
2022/12/13 01:45:40;;;;;;;47.30;24.13;;;;;;;;;;5051824;28;20128;-66
2022/12/13 01:48:09;;;;;;;47.05;24.55;;;;;;;;;;5052883;28;20127;-66
2022/12/13 01:50:39;;;;;;;48.13;23.83;;;;;;;;;;5052854;28;20053;-65
2022/12/13 01:53:06;;;;;;;43.03;23.48;;;;;;;;;;5052206;28;20056;-66
2022/12/13 01:55:34;;;;;;;42.95;22.17;;;;;;;;;;5052365;28;20132;-65
2022/12/13 01:58:07;;;;;;;50.55;23.73;;;;;;;;;;5052582;28;20407;-66
2022/12/13 02:00:34;;;;;;;46.53;22.73;;;;;;;;;;5052374;28;20630;-65
2022/12/13 02:03:01;;;;;;;46.22;23.55;;;;;;;;;;5052438;28;20041;-66
2022/12/13 02:05:27;;;;;;;49.50;23.85;;;;;;;;;;5052476;28;20148;-66
2022/12/13 02:07:56;;;;;;;49.15;23.67;;;;;;;;;;5052607;28;20059;-65
2022/12/13 02:10:22;;;;;;;44.92;24.05;;;;;;;;;;5051872;28;20057;-65
2022/12/13 02:12:49;;;;;;;47.15;23.15;;;;;;;;;;5052396;28;20122;-65
2022/12/13 02:15:16;;;;;;;46.22;23.25;;;;;;;;;;5052126;28;20132;-65
2022/12/13 02:17:46;;;;;;;48.20;23.92;;;;;;;;;;5052147;28;20404;-66
2022/12/13 02:20:36;;;;;;;47.75;23.48;;;;;;;;;;5052017;28;20480;-65
2022/12/13 02:23:11;;;;;;;45.90;23.65;;;;;;;;;;5052197;28;20124;-66
2022/12/13 02:25:50;;;;;;;50.72;24.40;;;;;;;;;;5051746;28;20063;-65
2022/12/13 02:28:36;;;;;;;48.42;23.73;;;;;;;;;;5051972;28;20131;-66
2022/12/13 02:31:15;;;;;;;48.65;23.27;;;;;;;;;;5051847;28;20049;-66
2022/12/13 02:33:47;;;;;;;46.50;24.45;;;;;;;;;;5051939;28;20106;-65
2022/12/13 02:36:32;;;;;;;48.50;25.13;;;;;;;;;;5052063;28;20528;-66
2022/12/13 02:39:09;;;;;;;52.33;25.08;;;;;;;;;;5051851;28;20124;-65
2022/12/13 02:41:40;;;;;;;46.67;23.67;;;;;;;;;;5052091;28;20128;-65
2022/12/13 02:44:17;;;;;;;48.10;25.25;;;;;;;;;;5052009;28;20160;-65
2022/12/13 02:46:53;;;;;;;46.38;25.73;;;;;;;;;;5051695;28;20106;-65
2022/12/13 02:49:21;;;;;;;51.53;26.25;;;;;;;;;;5051690;28;20453;-66
2022/12/13 02:51:48;;;;;;;46.83;24.50;;;;;;;;;;5051910;28;20138;-65
2022/12/13 02:54:15;;;;;;;48.95;25.10;;;;;;;;;;5051567;28;20140;-65
2022/12/13 02:56:41;;;;;;;45.63;24.02;;;;;;;;;;5051746;28;20131;-65
2022/12/13 02:59:11;;;;;;;46.97;23.63;;;;;;;;;;5051777;28;20123;-66
2022/12/13 03:01:46;;;;;;;49.20;24.90;;;;;;;;;;5051493;28;20483;-65
2022/12/13 03:04:18;;;;;;;47.92;24.90;;;;;;;;;;5051812;28;20045;-65
2022/12/13 03:07:09;;;;;;;47.47;24.88;;;;;;;;;;5051649;28;20060;-65
2022/12/13 03:09:55;;;;;;;49.83;25.50;;;;;;;;;;5051541;28;20049;-65
2022/12/13 03:15:25;;;;;;;46.38;25.67;;;;;;;;;;5051382;28;20103;-65
2022/12/13 03:18:14;;;;;;;50.40;25.17;;;;;;;;;;5051442;28;20527;-66
2022/12/13 03:20:51;;;;;;;44.78;24.85;;;;;;;;;;5051380;28;20041;-65
2022/12/13 03:23:18;;;;;;;46.13;24.67;;;;;;;;;;5055395;28;20512;-65
2022/12/13 03:25:46;;;;;;;46.35;24.92;;;;;;;;;;5055420;28;20049;-66
2022/12/13 03:28:12;;;;;;;48.30;24.15;;;;;;;;;;5055350;28;20045;-65
2022/12/13 03:30:39;;;;;;;44.10;23.65;;;;;;;;;;5055272;28;20053;-65
2022/12/13 03:33:05;;;;;;;43.22;23.85;;;;;;;;;;5055219;28;20067;-65
2022/12/13 03:35:32;;;;;;;44.92;24.00;;;;;;;;;;5055099;28;20049;-65
2022/12/13 03:38:09;;;;;;;48.53;23.23;;;;;;;;;;5055483;28;20393;-65
2022/12/13 03:40:36;;;;;;;42.63;23.48;;;;;;;;;;5055144;28;20128;-65
2022/12/13 03:43:02;;;;;;;42.35;22.70;;;;;;;;;;5054983;28;20044;-65
2022/12/13 03:45:28;;;;;;;39.88;21.33;;;;;;;;;;5055148;28;20059;-65
2022/12/13 03:47:55;;;;;;;40.17;22.63;;;;;;;;;;5054863;28;20051;-65
2022/12/13 03:50:21;;;;;;;37.78;21.65;;;;;;;;;;5054885;28;20143;-65
2022/12/13 03:52:59;;;;;;;39.88;21.95;;;;;;;;;;5055054;28;20057;-65
2022/12/13 03:55:26;;;;;;;39.45;22.25;;;;;;;;;;5040953;28;20048;-66
2022/12/13 03:57:52;;;;;;;39.28;22.38;;;;;;;;;;5054708;28;20564;-65
2022/12/13 04:00:19;;;;;;;38.70;21.65;;;;;;;;;;5054791;28;20044;-65
2022/12/13 04:02:45;;;;;;;43.80;23.25;;;;;;;;;;5044931;28;20556;-65
2022/12/13 04:05:12;;;;;;;40.38;22.23;;;;;;;;;;5053706;28;20055;-65
2022/12/13 04:07:39;;;;;;;41.00;21.80;;;;;;;;;;5054841;28;20060;-65
2022/12/13 04:10:13;;;;;;;43.17;22.55;;;;;;;;;;5054630;28;20049;-65
2022/12/13 04:15:47;;;;;;;36.03;21.90;;;;;;;;;;5046034;28;20056;-65
2022/12/13 04:18:17;;;;;;;39.30;22.48;;;;;;;;;;5054573;28;20144;-65
2022/12/13 04:20:44;;;;;;;37.45;21.77;;;;;;;;;;5054266;28;20568;-65
2022/12/13 04:23:11;;;;;;;36.35;21.55;;;;;;;;;;5054304;28;20132;-65
2022/12/13 04:25:38;;;;;;;37.47;22.08;;;;;;;;;;5054100;28;20049;-65
2022/12/13 04:28:05;;;;;;;39.90;22.90;;;;;;;;;;5054612;28;20052;-65
2022/12/13 04:30:32;;;;;;;38.20;23.13;;;;;;;;;;5054398;28;20133;-65
2022/12/13 04:32:58;;;;;;;39.30;22.90;;;;;;;;;;5054201;28;20483;-65
2022/12/13 04:35:25;;;;;;;37.40;20.60;;;;;;;;;;5054230;28;20080;-65
2022/12/13 04:37:52;;;;;;;42.58;23.13;;;;;;;;;;5054077;28;20037;-65
2022/12/13 04:40:18;;;;;;;38.83;22.35;;;;;;;;;;5053977;28;20176;-65
2022/12/13 04:42:47;;;;;;;36.67;23.05;;;;;;;;;;5054289;28;20440;-65
2022/12/13 04:45:19;;;;;;;37.78;21.42;;;;;;;;;;5054280;28;20053;-65
2022/12/13 04:47:46;;;;;;;37.45;22.00;;;;;;;;;;5054118;28;20051;-65
2022/12/13 04:50:12;;;;;;;39.88;22.50;;;;;;;;;;5053759;28;20445;-65
2022/12/13 04:52:38;;;;;;;37.28;22.33;;;;;;;;;;5053649;28;20575;-65
2022/12/13 04:55:06;;;;;;;35.65;22.20;;;;;;;;;;5053821;28;20051;-65
2022/12/13 04:57:32;;;;;;;37.33;23.17;;;;;;;;;;5053749;28;20048;-65
2022/12/13 04:59:58;;;;;;;36.78;22.13;;;;;;;;;;5053621;28;20161;-65
2022/12/13 05:02:25;;;;;;;33.55;21.05;;;;;;;;;;5053490;28;20083;-65
2022/12/13 05:04:51;;;;;;;36.00;21.25;;;;;;;;;;5053903;28;20053;-65
2022/12/13 05:07:19;;;;;;;37.58;21.55;;;;;;;;;;5053685;28;20080;-65
2022/12/13 05:09:46;;;;;;;38.50;22.30;;;;;;;;;;5053691;28;20404;-65
2022/12/13 05:12:12;;;;;;;35.25;21.90;;;;;;;;;;5053329;28;20132;-65
2022/12/13 05:14:48;;;;;;;35.28;21.55;;;;;;;;;;5053725;28;20143;-65
2022/12/13 05:17:15;;;;;;;37.08;20.98;;;;;;;;;;5053456;28;20132;-65
2022/12/13 05:19:41;;;;;;;40.17;22.70;;;;;;;;;;5053245;28;20485;-65
2022/12/13 05:22:14;;;;;;;42.47;22.55;;;;;;;;;;5053560;28;20045;-65
2022/12/13 05:24:46;;;;;;;40.38;23.90;;;;;;;;;;5053419;28;20084;-65
2022/12/13 05:27:12;;;;;;;39.28;22.95;;;;;;;;;;5052008;28;20087;-65
2022/12/13 05:29:55;;;;;;;41.08;22.80;;;;;;;;;;5053350;28;20052;-65
2022/12/13 05:32:37;;;;;;;37.58;22.23;;;;;;;;;;5053321;28;20049;-65
2022/12/13 05:35:14;;;;;;;38.10;22.08;;;;;;;;;;5052891;28;20045;-65
2022/12/13 05:37:49;;;;;;;40.53;22.95;;;;;;;;;;5053135;28;20076;-66
2022/12/13 05:40:20;;;;;;;38.35;22.65;;;;;;;;;;5053071;28;20095;-65
2022/12/13 05:42:46;;;;;;;37.38;21.77;;;;;;;;;;5053411;28;20053;-64
2022/12/13 05:45:14;;;;;;;36.58;21.17;;;;;;;;;;5052308;28;20136;-65
2022/12/13 05:47:41;;;;;;;39.50;22.38;;;;;;;;;;5052744;28;20203;-65
2022/12/13 05:50:08;;;;;;;32.25;20.52;;;;;;;;;;5052968;28;20049;-65
2022/12/13 05:52:34;;;;;;;37.58;22.75;;;;;;;;;;5052807;28;20179;-65
2022/12/13 05:55:00;;;;;;;36.30;22.50;;;;;;;;;;5051585;28;20059;-65
2022/12/13 05:57:27;;;;;;;41.40;23.63;;;;;;;;;;5052688;28;20069;-65
2022/12/13 05:59:53;;;;;;;37.17;22.63;;;;;;;;;;5052771;28;20476;-65
2022/12/13 06:02:20;;;;;;;34.28;21.13;;;;;;;;;;5052213;28;20152;-65
2022/12/13 06:04:47;;;;;;;37.55;20.77;;;;;;;;;;5052686;28;20045;-65
2022/12/13 06:07:13;;;;;;;35.20;21.58;;;;;;;;;;5052455;28;20128;-65
2022/12/13 06:09:40;;;;;;;33.78;20.52;;;;;;;;;;5052305;28;20475;-65
2022/12/13 06:12:08;;;;;;;35.58;21.27;;;;;;;;;;5052176;28;20132;-65
2022/12/13 06:14:54;;;;;;;34.40;21.10;;;;;;;;;;5052153;28;20506;-65
2022/12/13 06:17:34;;;;;;;38.38;21.35;;;;;;;;;;5052150;28;20519;-65
2022/12/13 06:20:00;;;;;;;38.78;22.20;;;;;;;;;;5052398;28;20136;-65
2022/12/13 06:22:27;;;;;;;34.92;22.25;;;;;;;;;;5052070;28;20567;-65
2022/12/13 06:24:53;;;;;;;38.83;23.17;;;;;;;;;;5052288;28;20128;-65
2022/12/13 06:27:20;;;;;;;39.10;23.95;;;;;;;;;;5052051;28;20592;-65
2022/12/13 06:29:46;;;;;;;38.50;21.88;;;;;;;;;;5052062;28;20048;-65
2022/12/13 06:32:13;;;;;;;36.72;22.33;;;;;;;;;;5051928;28;20041;-65
2022/12/13 06:34:39;;;;;;;37.72;22.63;;;;;;;;;;5052444;28;20080;-65
2022/12/13 06:37:07;;;;;;;37.38;22.30;;;;;;;;;;5051748;28;20128;-65
2022/12/13 06:39:34;;;;;;;;;;;;;;;;;;5052496;28;20136;-65
2022/12/13 06:42:04;;;;;;;38.97;23.20;;;;;;;;;;5051704;28;19920;-65
2022/12/13 06:44:31;;;;;;;41.55;23.50;;;;;;;;;;5052088;28;20048;-65
2022/12/13 06:46:59;;;;;;;38.13;21.27;;;;;;;;;;5051567;28;20055;-65
2022/12/13 06:49:38;;;;;;;39.55;22.17;;;;;;;;;;5051914;28;20048;-65
2022/12/13 06:52:04;;;;;;;35.80;21.65;;;;;;;;;;5050627;28;20103;-65
2022/12/13 06:54:31;;;;;;;39.08;22.65;;;;;;;;;;5051892;28;20471;-65
2022/12/13 06:56:58;;;;;;;41.65;23.40;;;;;;;;;;5051943;28;20463;-65
2022/12/13 06:59:25;;;;;;;37.10;21.90;;;;;;;;;;5051324;28;20518;-65
2022/12/13 07:01:51;;;;;;;36.67;22.20;;;;;;;;;;5041982;28;20085;-65
2022/12/13 07:04:17;;;;;;;35.92;20.65;;;;;;;;;;5041498;28;20136;-65
2022/12/13 07:06:56;;;;;;;41.08;22.98;;;;;;;;;;5051690;28;20037;-65
2022/12/13 07:09:29;;;;;;;40.63;23.67;;;;;;;;;;5051497;28;20053;-65
2022/12/13 07:11:55;;;;;;;;;;;;;;;;;;5051918;28;20595;-65
2022/12/13 07:14:21;;;;;;;39.78;22.80;;;;;;;;;;5049467;28;20040;-65
2022/12/13 07:16:48;;;;;;;41.25;23.48;;;;;;;;;;5031436;28;20132;-66
2022/12/13 07:19:14;;;;;;;39.75;23.20;;;;;;;;;;5031611;28;20128;-63
2022/12/13 07:21:49;;;;;;;40.97;22.95;;;;;;;;;;5031572;28;20413;-65
2022/12/13 07:24:16;;;;;;;40.58;22.38;;;;;;;;;;5031314;28;20489;-65
2022/12/13 07:26:42;;;;;;;38.22;23.20;;;;;;;;;;5030829;28;20145;-66
2022/12/13 07:29:09;;;;;;;42.63;22.25;;;;;;;;;;5036395;28;20124;-65
2022/12/13 07:31:36;;;;;;;41.08;22.90;;;;;;;;;;5030597;28;20517;-65
2022/12/13 07:34:03;;;;;;;39.38;22.75;;;;;;;;;;5035033;28;20064;-65
2022/12/13 07:36:29;;;;;;;37.03;21.33;;;;;;;;;;5035684;28;20574;-65
2022/12/13 07:38:56;;;;;;;38.55;21.33;;;;;;;;;;5051365;28;20140;-65
2022/12/13 07:41:23;;;;;;;37.90;22.67;;;;;;;;;;5051648;28;20076;-65
2022/12/13 07:43:53;;;;;;;36.22;21.27;;;;;;;;;;5051442;28;20049;-65
2022/12/13 07:46:20;;;;;;;36.88;21.55;;;;;;;;;;5051288;28;20049;-65
2022/12/13 07:48:58;;;;;;;;;;;;;;;;;;5051536;28;20558;-65
2022/12/13 07:51:27;;;;;;;40.03;22.80;;;;;;;;;;5050565;28;19921;-65
2022/12/13 07:53:53;;;;;;;41.53;22.88;;;;;;;;;;5051335;28;20412;-65
2022/12/13 07:56:19;;;;;;;38.47;22.85;;;;;;;;;;5051255;28;20133;-65
2022/12/13 07:58:46;;;;;;;36.63;21.58;;;;;;;;;;5050947;28;20080;-65
2022/12/13 08:01:12;;;;;;;40.67;23.05;;;;;;;;;;5051143;28;20094;-65
2022/12/13 08:03:39;;;;;;;39.42;22.80;;;;;;;;;;5037039;28;20091;-65
2022/12/13 08:06:07;;;;;;;41.20;24.08;;;;;;;;;;5030511;28;20046;-65
2022/12/13 08:08:33;;;;;;;40.13;22.75;;;;;;;;;;5038643;28;20080;-65
2022/12/13 08:11:04;;;;;;;39.25;22.45;;;;;;;;;;5035310;28;20072;-65
2022/12/13 08:13:31;;;;;;;38.17;22.23;;;;;;;;;;5034313;28;20053;-65
2022/12/13 08:16:01;;;;;;;39.88;21.98;;;;;;;;;;5034244;28;20141;-65
2022/12/13 08:18:28;;;;;;;36.60;22.08;;;;;;;;;;5033948;28;20061;-66
2022/12/13 08:21:02;;;;;;;38.30;23.15;;;;;;;;;;5033982;28;20113;-66
2022/12/13 08:23:32;;;;;;;39.80;22.33;;;;;;;;;;5034301;28;20128;-65
2022/12/13 08:26:00;;;;;;;38.35;22.27;;;;;;;;;;5034117;28;20099;-65
2022/12/13 08:28:26;;;;;;;37.03;21.45;;;;;;;;;;5047002;28;20092;-65
2022/12/13 08:30:53;;;;;;;37.83;22.35;;;;;;;;;;5054080;28;20572;-66
2022/12/13 08:33:20;;;;;;;35.97;21.98;;;;;;;;;;5054443;28;20052;-65
2022/12/13 08:35:47;;;;;;;37.13;21.25;;;;;;;;;;5039852;28;20053;-65
2022/12/13 08:38:13;;;;;;;37.22;21.77;;;;;;;;;;5054298;28;20207;-65
2022/12/13 08:40:47;;;;;;;38.03;22.67;;;;;;;;;;5041630;28;20056;-65
2022/12/13 08:43:16;;;;;;;35.50;21.45;;;;;;;;;;5040405;28;20052;-63
2022/12/13 08:45:50;;;;;;;37.33;22.40;;;;;;;;;;5054280;28;20106;-64
2022/12/13 08:48:16;;;;;;;38.42;21.52;;;;;;;;;;5054175;28;20441;-64
2022/12/13 08:50:43;;;;;;;35.55;21.35;;;;;;;;;;5053892;28;20520;-64
2022/12/13 08:53:09;;;;;;;37.53;22.38;;;;;;;;;;5045607;28;20100;-65
2022/12/13 08:55:58;;;;;;;39.53;21.17;;;;;;;;;;5047733;28;20128;-65
2022/12/13 08:58:24;;;;;;;38.75;22.27;;;;;;;;;;5053778;28;20499;-65
2022/12/13 09:00:50;;;;;;;37.17;22.08;;;;;;;;;;5053778;28;20120;-65
2022/12/13 09:03:17;;;;;;;38.33;21.85;;;;;;;;;;5053911;28;20053;-64
2022/12/13 09:05:44;;;;;;;37.05;22.15;;;;;;;;;;5050580;28;20049;-64
2022/12/13 09:08:10;;;;;;;35.92;21.33;;;;;;;;;;5049655;28;20076;-64
2022/12/13 09:11:00;;;;;;;35.35;21.27;;;;;;;;;;5035061;28;20092;-64
2022/12/13 09:13:39;;;;;;;37.15;21.27;;;;;;;;;;5039792;28;20459;-64
2022/12/13 09:16:13;;;;;;;35.53;22.08;;;;;;;;;;5041589;28;20051;-64
2022/12/13 09:18:50;;;;;;;37.25;20.73;;;;;;;;;;5032999;28;20482;-64
2022/12/13 09:21:21;;;;;;;37.50;21.40;;;;;;;;;;5052682;28;20056;-64
2022/12/13 09:23:57;;;;;;;37.58;21.98;;;;;;;;;;5049820;28;20371;-64
2022/12/13 09:26:27;;;;;;;38.17;22.55;;;;;;;;;;5052539;28;20049;-64
2022/12/13 09:28:53;;;;;;;33.78;21.50;;;;;;;;;;5038256;28;20136;-64
2022/12/13 09:31:21;;;;;;;35.17;20.08;;;;;;;;;;5050647;28;20053;-64
2022/12/13 09:33:48;;;;;;;32.83;20.85;;;;;;;;;;5052661;28;20048;-64
2022/12/13 09:36:15;;;;;;;35.70;20.98;;;;;;;;;;5052706;28;20060;-65
2022/12/13 09:38:42;;;;;;;35.22;21.17;;;;;;;;;;5052235;28;20479;-64
2022/12/13 09:41:18;;;;;;;36.25;21.13;;;;;;;;;;5052302;28;20127;-64
2022/12/13 09:43:47;;;;;;;38.97;20.80;;;;;;;;;;5052223;28;20079;-64
2022/12/13 09:46:40;;;;;;;34.95;20.73;;;;;;;;;;5052115;28;20149;-64
2022/12/13 09:49:13;;;;;;;34.42;21.17;;;;;;;;;;5052361;28;20045;-64
2022/12/13 09:51:48;;;;;;;;;;;;;;;;;;5052620;28;20057;-64
2022/12/13 09:54:26;;;;;;;34.22;19.45;;;;;;;;;;5051987;28;20372;-64
2022/12/13 09:56:54;;;;;;;33.50;20.50;;;;;;;;;;5052033;28;20049;-65
2022/12/13 09:59:25;;;;;;;32.13;19.48;;;;;;;;;;5051852;28;20546;-64
2022/12/13 10:01:51;;;;;;;33.08;20.48;;;;;;;;;;5049421;28;20157;-64
2022/12/13 10:04:17;;;;;;;30.98;19.52;;;;;;;;;;5034555;28;20049;-65
2022/12/13 10:06:44;;;;;;;32.30;19.45;;;;;;;;;;5052184;28;20133;-65
2022/12/13 10:09:12;;;;;;;31.35;19.55;;;;;;;;;;5052026;28;20084;-64
2022/12/13 10:11:49;;;;;;;28.08;18.67;;;;;;;;;;5051413;28;20064;-64
2022/12/13 10:14:26;;;;;;;31.05;19.17;;;;;;;;;;5039760;28;20156;-64
2022/12/13 10:16:56;;;;;;;31.65;18.55;;;;;;;;;;5051666;28;20084;-65
2022/12/13 10:19:26;;;;;;;26.17;16.75;;;;;;;;;;5051465;28;20049;-64
2022/12/13 10:21:55;;;;;;;28.50;18.45;;;;;;;;;;5042391;28;20060;-64
2022/12/13 10:24:31;;;;;;;28.95;18.52;;;;;;;;;;5044722;28;20124;-65
2022/12/13 10:27:13;;;;;;;28.75;18.02;;;;;;;;;;5051475;28;20049;-65
2022/12/13 10:29:55;;;;;;;30.77;17.95;;;;;;;;;;5049645;28;20127;-65
2022/12/13 10:32:22;;;;;;;29.00;17.92;;;;;;;;;;5051420;28;20415;-65
2022/12/13 10:34:48;;;;;;;29.95;18.58;;;;;;;;;;5051325;28;20085;-65
2022/12/13 10:37:27;;;;;;;26.10;17.33;;;;;;;;;;5045254;28;20053;-65
2022/12/13 10:39:53;;;;;;;26.75;16.88;;;;;;;;;;5045278;28;20052;-65
2022/12/13 10:42:20;;;;;;;28.90;17.67;;;;;;;;;;5051240;28;20056;-65
2022/12/13 10:44:48;;;;;;;27.83;17.08;;;;;;;;;;5042137;28;20049;-65
2022/12/13 10:47:15;;;;;;;30.30;17.55;;;;;;;;;;5044916;28;20096;-65
2022/12/13 10:49:48;;;;;;;27.92;18.02;;;;;;;;;;5051482;28;20049;-65
2022/12/13 10:52:31;;;;;;;26.27;16.83;;;;;;;;;;5051102;28;20131;-65
2022/12/13 10:55:01;;;;;;;28.92;17.52;;;;;;;;;;5051064;28;20500;-65
2022/12/13 10:57:27;;;;;;;28.27;17.85;;;;;;;;;;5051050;28;20088;-65
2022/12/13 10:59:54;;;;;;;29.48;17.55;;;;;;;;;;5051237;28;20400;-65
2022/12/13 11:02:29;;;;;;;25.73;16.70;;;;;;;;;;5048833;28;20059;-65
2022/12/13 11:04:57;;;;;;;27.83;16.88;;;;;;;;;;5051385;28;20041;-65
2022/12/13 11:07:28;;;;;;;29.13;18.45;;;;;;;;;;5051164;28;20052;-65
2022/12/13 11:09:55;;;;;;;28.02;17.58;;;;;;;;;;5051174;28;20124;-65
2022/12/13 11:12:30;;;;;;;26.35;16.88;;;;;;;;;;5050915;28;20539;-65
2022/12/13 11:14:58;;;;;;;26.20;16.67;;;;;;;;;;5050842;28;20127;-65
2022/12/13 11:17:26;;;;;;;27.15;17.10;;;;;;;;;;5051218;28;20051;-65
2022/12/13 11:19:53;;;;;;;;;;;;;;;;;;5045020;28;20502;-65
2022/12/13 11:22:29;;;;;;;26.05;16.30;;;;;;;;;;5037257;28;20003;-64
2022/12/13 11:25:01;;;;;;;27.25;16.55;;;;;;;;;;5051126;28;20128;-65
2022/12/13 11:27:38;;;;;;;26.25;16.13;;;;;;;;;;5038735;28;20084;-65
2022/12/13 11:30:15;;;;;;;26.02;16.42;;;;;;;;;;5042564;28;20057;-65
2022/12/13 11:32:45;;;;;;;27.23;16.60;;;;;;;;;;5051158;28;20136;-65
2022/12/13 11:35:34;;;;;;;26.52;16.83;;;;;;;;;;5051165;28;20215;-65
2022/12/13 11:38:03;;;;;;;25.38;16.25;;;;;;;;;;5051237;28;20131;-65
2022/12/13 11:40:40;;;;;;;25.52;16.58;;;;;;;;;;5050601;28;20569;-65
2022/12/13 11:43:23;;;;;;;27.52;16.90;;;;;;;;;;5053428;28;20051;-65
2022/12/13 11:45:55;;;;;;;27.88;17.55;;;;;;;;;;5054821;28;20124;-64
2022/12/13 11:48:31;;;;;;;26.48;16.27;;;;;;;;;;5054853;28;20562;-65
2022/12/13 11:50:59;;;;;;;25.65;16.80;;;;;;;;;;5035500;28;20128;-64
2022/12/13 11:53:34;;;;;;;24.75;16.20;;;;;;;;;;5037814;28;20399;-65
2022/12/13 11:56:19;;;;;;;24.25;15.90;;;;;;;;;;5054907;28;20084;-65
2022/12/13 11:59:06;;;;;;;25.38;16.45;;;;;;;;;;5043649;28;20120;-67
2022/12/13 12:01:50;;;;;;;24.27;16.08;;;;;;;;;;5037229;28;20073;-70
2022/12/13 12:04:32;;;;;;;23.92;16.02;;;;;;;;;;5048391;28;20132;-65
2022/12/13 12:07:10;;;;;;;25.77;17.20;;;;;;;;;;5037557;28;20124;-65
2022/12/13 12:09:58;;;;;;;23.42;15.30;;;;;;;;;;5054032;28;20139;-65
2022/12/13 12:12:35;;;;;;;26.83;17.40;;;;;;;;;;5054573;28;20460;-65
2022/12/13 12:15:06;;;;;;;25.88;15.77;;;;;;;;;;5054522;28;20136;-65
2022/12/13 12:17:42;;;;;;;28.60;18.45;;;;;;;;;;5054743;28;20053;-65
2022/12/13 12:20:11;;;;;;;22.40;16.00;;;;;;;;;;5054556;28;20041;-65
2022/12/13 12:22:38;;;;;;;22.23;14.77;;;;;;;;;;5054420;28;20048;-65
2022/12/13 12:25:04;;;;;;;21.77;14.38;;;;;;;;;;5054318;28;20123;-66
2022/12/13 12:27:36;;;;;;;24.05;16.27;;;;;;;;;;5054274;28;20048;-65
2022/12/13 12:30:09;;;;;;;24.63;16.05;;;;;;;;;;5054293;28;20135;-65
2022/12/13 12:32:45;;;;;;;25.38;15.18;;;;;;;;;;5054645;28;20061;-65
2022/12/13 12:35:18;;;;;;;22.70;14.45;;;;;;;;;;5054410;28;20095;-65
2022/12/13 12:38:03;;;;;;;20.15;14.35;;;;;;;;;;5044975;28;20136;-66
2022/12/13 12:40:36;;;;;;;21.38;14.75;;;;;;;;;;5050796;28;20049;-66
2022/12/13 12:43:22;;;;;;;19.98;14.60;;;;;;;;;;5054032;28;20045;-66
2022/12/13 12:45:52;;;;;;;21.13;14.40;;;;;;;;;;5042649;28;20045;-65
2022/12/13 12:48:41;;;;;;;21.35;14.88;;;;;;;;;;5050360;28;20080;-66
2022/12/13 12:51:29;;;;;;;23.08;14.45;;;;;;;;;;5053803;28;20071;-66
2022/12/13 12:54:10;;;;;;;23.60;14.90;;;;;;;;;;5053838;28;20163;-66
2022/12/13 12:56:40;;;;;;;20.85;14.65;;;;;;;;;;5054321;28;20076;-66
2022/12/13 12:59:22;;;;;;;20.02;13.88;;;;;;;;;;5051389;28;20045;-65
2022/12/13 13:01:55;;;;;;;22.92;14.88;;;;;;;;;;5045789;28;20124;-65
2022/12/13 13:04:25;;;;;;;22.08;13.60;;;;;;;;;;5039141;28;20095;-65
2022/12/13 13:06:58;;;;;;;24.30;15.02;;;;;;;;;;5053945;28;20083;-65
2022/12/13 13:09:27;;;;;;;21.52;14.18;;;;;;;;;;5037906;28;20049;-65
2022/12/13 13:11:54;;;;;;;23.35;14.40;;;;;;;;;;5049067;28;20047;-66
2022/12/13 13:14:23;;;;;;;22.27;13.48;;;;;;;;;;5053433;28;20057;-66
2022/12/13 13:16:49;;;;;;;19.15;13.60;;;;;;;;;;5053574;28;20044;-65
2022/12/13 13:19:16;;;;;;;19.90;13.05;;;;;;;;;;5038691;28;20110;-65
2022/12/13 13:21:52;;;;;;;21.05;13.05;;;;;;;;;;5049325;28;20042;-65
2022/12/13 13:24:20;;;;;;;21.67;14.68;;;;;;;;;;5043330;28;20087;-65
2022/12/13 13:26:48;;;;;;;18.08;12.88;;;;;;;;;;5053085;28;20156;-65
2022/12/13 13:29:25;;;;;;;20.27;13.50;;;;;;;;;;5053138;28;20583;-65
2022/12/13 13:31:53;;;;;;;17.60;13.77;;;;;;;;;;5053050;28;20503;-65
2022/12/13 13:34:28;;;;;;;21.50;14.57;;;;;;;;;;5053376;28;20519;-65
2022/12/13 13:36:55;;;;;;;20.85;14.70;;;;;;;;;;5052963;28;20053;-65
2022/12/13 13:39:25;;;;;;;21.60;14.43;;;;;;;;;;5052902;28;20659;-65
2022/12/13 13:41:54;;;;;;;23.45;15.73;;;;;;;;;;5052957;28;20477;-65
2022/12/13 13:44:32;;;;;;;21.27;14.45;;;;;;;;;;5046372;28;20119;-65
2022/12/13 13:47:12;;;;;;;23.42;14.82;;;;;;;;;;5046772;28;20139;-63
2022/12/13 13:49:58;;;;;;;20.42;14.75;;;;;;;;;;5052657;28;20504;-65
2022/12/13 13:52:42;;;;;;;21.48;14.52;;;;;;;;;;5040994;28;20049;-65
2022/12/13 13:55:28;;;;;;;22.08;14.25;;;;;;;;;;5046367;28;20604;-65
2022/12/13 13:58:00;;;;;;;25.50;16.88;;;;;;;;;;5052813;28;20087;-65
2022/12/13 14:00:45;;;;;;;22.90;15.15;;;;;;;;;;5052703;28;20048;-65
2022/12/13 14:03:20;;;;;;;21.58;15.43;;;;;;;;;;5051451;28;20455;-65
2022/12/13 14:06:17;;;;;;;22.00;14.73;;;;;;;;;;5042193;28;20051;-65
2022/12/13 14:08:47;;;;;;;21.75;14.50;;;;;;;;;;5050751;28;20128;-65
2022/12/13 14:11:19;;;;;;;23.70;16.35;;;;;;;;;;5052628;28;20152;-65
2022/12/13 14:13:46;;;;;;;24.75;16.90;;;;;;;;;;5052551;28;20121;-65
2022/12/13 14:16:15;;;;;;;22.58;16.17;;;;;;;;;;5052572;28;20132;-65
2022/12/13 14:18:50;;;;;;;22.85;16.23;;;;;;;;;;5052363;28;20064;-65
2022/12/13 14:21:38;;;;;;;21.13;14.43;;;;;;;;;;5052173;28;20127;-65
2022/12/13 14:24:07;;;;;;;22.73;14.88;;;;;;;;;;5041378;28;20573;-65
2022/12/13 14:26:34;;;;;;;23.15;15.35;;;;;;;;;;5052043;28;20156;-65
2022/12/13 14:29:02;;;;;;;21.88;14.80;;;;;;;;;;5052329;28;20120;-65
2022/12/13 14:31:48;;;;;;;22.92;16.58;;;;;;;;;;5051904;28;20049;-65
2022/12/13 14:34:35;;;;;;;26.05;15.90;;;;;;;;;;5052306;28;20061;-65
2022/12/13 14:37:05;;;;;;;32.00;21.15;;;;;;;;;;5051745;28;20139;-65
2022/12/13 14:39:33;;;;;;;27.33;19.20;;;;;;;;;;5036537;28;20091;-66
2022/12/13 14:42:01;;;;;;;34.97;21.30;;;;;;;;;;5040852;28;20049;-65
2022/12/13 14:44:34;;;;;;;26.30;17.48;;;;;;;;;;5051746;28;20089;-65
2022/12/13 14:47:05;;;;;;;28.48;19.05;;;;;;;;;;5051790;28;20091;-65